createdAt,value
2019-02-28T00:00:40.797Z,7.07
2019-02-28T00:01:37.692Z,7.06
2019-02-28T00:02:37.829Z,7.11
2019-02-28T00:03:37.977Z,7.06
2019-02-28T00:04:38.094Z,7.03
2019-02-28T00:05:39.060Z,7.08
2019-02-28T00:06:38.357Z,7.10
2019-02-28T00:07:38.528Z,7.10
2019-02-28T00:08:38.657Z,7.03
2019-02-28T00:09:38.811Z,7.06
2019-02-28T00:10:38.937Z,6.96
2019-02-28T00:11:39.502Z,6.99
2019-02-28T00:12:39.198Z,6.97
2019-02-28T00:13:39.373Z,6.93
2019-02-28T00:14:39.485Z,6.92
2019-02-28T00:15:39.612Z,6.93
2019-02-28T00:16:39.746Z,6.93
2019-02-28T00:17:42.573Z,6.88
2019-02-28T00:18:40.024Z,6.85
2019-02-28T00:19:40.148Z,6.88
2019-02-28T00:20:40.290Z,6.89
2019-02-28T00:21:41.244Z,6.79
2019-02-28T00:22:40.540Z,6.82
2019-02-28T00:23:40.676Z,6.85
2019-02-28T00:24:40.819Z,6.88
2019-02-28T00:25:40.935Z,6.86
2019-02-28T00:26:46.293Z,6.86
2019-02-28T00:27:41.203Z,6.83
2019-02-28T00:28:41.312Z,6.75
2019-02-28T00:29:41.435Z,6.74
2019-02-28T00:30:41.690Z,6.83
2019-02-28T00:31:41.713Z,6.79
2019-02-28T00:32:41.841Z,6.78
2019-02-28T00:33:41.967Z,6.73
2019-02-28T00:34:42.116Z,6.75
2019-02-28T00:35:44.678Z,6.75
2019-02-28T00:36:42.364Z,6.78
2019-02-28T00:37:42.515Z,6.75
2019-02-28T00:38:42.634Z,6.73
2019-02-28T00:39:42.768Z,6.74
2019-02-28T00:40:42.886Z,6.74
2019-02-28T00:41:44.440Z,6.70
2019-02-28T00:42:43.146Z,6.74
2019-02-28T00:43:43.275Z,6.78
2019-02-28T00:44:43.424Z,6.75
2019-02-28T00:45:43.538Z,6.79
2019-02-28T00:46:45.197Z,6.73
2019-02-28T00:47:43.788Z,6.74
2019-02-28T00:48:43.940Z,6.61
2019-02-28T00:49:44.056Z,6.56
2019-02-28T00:50:44.196Z,6.70
2019-02-28T00:51:44.315Z,6.63
2019-02-28T00:52:44.437Z,6.65
2019-02-28T00:53:44.553Z,6.63
2019-02-28T00:54:44.688Z,6.56
2019-02-28T00:55:45.890Z,6.61
2019-02-28T00:56:44.996Z,6.53
2019-02-28T00:57:45.124Z,6.52
2019-02-28T00:58:45.247Z,6.52
2019-02-28T00:59:45.394Z,6.52
2019-02-28T01:00:45.516Z,6.46
2019-02-28T01:01:45.991Z,6.37
2019-02-28T01:02:45.782Z,6.40
2019-02-28T01:03:45.908Z,6.46
2019-02-28T01:04:46.028Z,6.37
2019-02-28T01:05:46.179Z,6.32
2019-02-28T01:06:46.303Z,6.35
2019-02-28T01:07:48.154Z,6.38
2019-02-28T01:08:46.570Z,6.30
2019-02-28T01:09:46.691Z,6.38
2019-02-28T01:10:46.820Z,6.34
2019-02-28T01:11:46.943Z,6.37
2019-02-28T01:12:47.092Z,6.37
2019-02-28T01:13:47.228Z,6.32
2019-02-28T01:14:47.342Z,6.37
2019-02-28T01:15:47.475Z,6.46
2019-02-28T01:16:50.157Z,6.42
2019-02-28T01:17:47.753Z,6.37
2019-02-28T01:18:47.875Z,6.42
2019-02-28T01:19:47.996Z,6.34
2019-02-28T01:20:50.746Z,6.28
2019-02-28T01:21:48.272Z,6.35
2019-02-28T01:22:48.394Z,6.37
2019-02-28T01:23:48.523Z,6.35
2019-02-28T01:24:48.647Z,6.38
2019-02-28T01:25:48.803Z,6.32
2019-02-28T01:26:48.928Z,6.34
2019-02-28T01:27:49.055Z,6.25
2019-02-28T01:28:49.204Z,6.32
2019-02-28T01:29:49.326Z,6.30
2019-02-28T01:30:49.459Z,6.27
2019-02-28T01:31:49.579Z,6.27
2019-02-28T01:32:50.997Z,6.11
2019-02-28T01:33:49.843Z,6.09
2019-02-28T01:34:49.973Z,6.19
2019-02-28T01:35:50.104Z,6.21
2019-02-28T01:36:50.226Z,6.21
2019-02-28T01:37:52.390Z,6.05
2019-02-28T01:38:50.477Z,6.18
2019-02-28T01:39:50.603Z,6.12
2019-02-28T01:40:50.722Z,6.18
2019-02-28T01:41:50.853Z,6.16
2019-02-28T01:42:53.979Z,6.21
2019-02-28T01:43:51.116Z,6.19
2019-02-28T01:44:51.234Z,6.16
2019-02-28T01:45:51.363Z,6.19
2019-02-28T01:46:51.503Z,6.19
2019-02-28T01:47:52.352Z,6.15
2019-02-28T01:48:54.567Z,6.11
2019-02-28T01:49:51.889Z,6.09
2019-02-28T01:50:52.018Z,6.18
2019-02-28T01:51:52.138Z,6.18
2019-02-28T01:52:52.266Z,6.16
2019-02-28T01:53:53.621Z,6.24
2019-02-28T01:54:52.537Z,6.11
2019-02-28T01:55:52.658Z,6.16
2019-02-28T01:56:52.786Z,6.11
2019-02-28T01:57:52.911Z,6.03
2019-02-28T01:58:53.101Z,6.06
2019-02-28T01:59:53.684Z,5.98
2019-02-28T02:00:53.756Z,6.02
2019-02-28T02:01:53.443Z,6.05
2019-02-28T02:02:53.568Z,6.05
2019-02-28T02:03:53.698Z,5.91
2019-02-28T02:04:53.871Z,5.95
2019-02-28T02:05:53.990Z,5.84
2019-02-28T02:06:54.111Z,5.85
2019-02-28T02:07:54.234Z,5.75
2019-02-28T02:08:54.370Z,5.85
2019-02-28T02:09:54.494Z,5.75
2019-02-28T02:10:56.006Z,5.77
2019-02-28T02:11:57.991Z,5.80
2019-02-28T02:12:54.880Z,5.65
2019-02-28T02:13:55.003Z,5.77
2019-02-28T02:14:55.130Z,5.73
2019-02-28T02:15:55.292Z,5.82
2019-02-28T02:16:55.409Z,5.76
2019-02-28T02:17:55.538Z,5.69
2019-02-28T02:18:55.663Z,5.77
2019-02-28T02:19:55.808Z,5.73
2019-02-28T02:20:57.422Z,5.61
2019-02-28T02:21:56.065Z,5.57
2019-02-28T02:22:56.183Z,5.57
2019-02-28T02:23:56.331Z,5.47
2019-02-28T02:24:59.426Z,5.55
2019-02-28T02:25:56.575Z,5.55
2019-02-28T02:26:56.708Z,5.54
2019-02-28T02:27:56.829Z,5.67
2019-02-28T02:29:00.838Z,5.62
2019-02-28T02:29:57.088Z,5.66
2019-02-28T02:30:57.227Z,5.62
2019-02-28T02:32:01.007Z,5.72
2019-02-28T02:32:57.465Z,5.65
2019-02-28T02:33:57.605Z,5.62
2019-02-28T02:35:06.198Z,5.72
2019-02-28T02:35:57.868Z,5.58
2019-02-28T02:36:57.982Z,5.72
2019-02-28T02:37:58.148Z,5.58
2019-02-28T02:38:58.266Z,5.55
2019-02-28T02:39:58.395Z,5.59
2019-02-28T02:41:00.579Z,5.54
2019-02-28T02:41:58.653Z,5.62
2019-02-28T02:42:58.786Z,5.48
2019-02-28T02:43:58.897Z,5.40
2019-02-28T02:44:59.029Z,5.47
2019-02-28T02:45:59.165Z,5.51
2019-02-28T02:46:59.285Z,5.54
2019-02-28T02:47:59.422Z,5.48
2019-02-28T02:48:59.552Z,5.44
2019-02-28T02:49:59.699Z,5.52
2019-02-28T02:50:59.821Z,5.44
2019-02-28T02:51:59.952Z,5.39
2019-02-28T02:53:04.887Z,5.50
2019-02-28T02:54:00.215Z,5.55
2019-02-28T02:55:00.357Z,5.41
2019-02-28T02:56:03.869Z,5.55
2019-02-28T02:57:00.589Z,5.51
2019-02-28T02:58:00.739Z,5.50
2019-02-28T02:59:01.985Z,5.50
2019-02-28T03:00:00.984Z,5.57
2019-02-28T03:01:01.134Z,5.55
2019-02-28T03:02:01.260Z,5.59
2019-02-28T03:03:05.298Z,5.41
2019-02-28T03:04:01.511Z,5.51
2019-02-28T03:05:01.661Z,5.54
2019-02-28T03:06:01.776Z,5.57
2019-02-28T03:07:01.923Z,5.58
2019-02-28T03:08:02.028Z,5.55
2019-02-28T03:09:02.170Z,5.43
2019-02-28T03:10:02.300Z,5.54
2019-02-28T03:11:02.426Z,5.44
2019-02-28T03:12:02.548Z,5.43
2019-02-28T03:13:04.849Z,5.52
2019-02-28T03:14:02.814Z,5.47
2019-02-28T03:15:02.944Z,5.57
2019-02-28T03:16:03.080Z,5.52
2019-02-28T03:17:09.700Z,5.57
2019-02-28T03:18:03.335Z,5.52
2019-02-28T03:19:03.456Z,5.48
2019-02-28T03:20:07.370Z,5.52
2019-02-28T03:21:03.740Z,5.41
2019-02-28T03:22:03.861Z,5.61
2019-02-28T03:23:03.992Z,5.47
2019-02-28T03:24:04.102Z,5.47
2019-02-28T03:25:04.247Z,5.50
2019-02-28T03:26:06.850Z,5.50
2019-02-28T03:27:04.496Z,5.47
2019-02-28T03:28:04.628Z,5.44
2019-02-28T03:29:08.061Z,5.41
2019-02-28T03:30:04.895Z,5.44
2019-02-28T03:31:11.657Z,5.29
2019-02-28T03:32:05.147Z,5.18
2019-02-28T03:33:05.270Z,4.88
2019-02-28T03:34:12.825Z,4.60
2019-02-28T03:35:05.536Z,4.49
2019-02-28T03:36:05.664Z,4.48
2019-02-28T03:37:05.783Z,4.36
2019-02-28T03:38:10.767Z,4.36
2019-02-28T03:39:06.068Z,4.27
2019-02-28T03:40:06.192Z,4.27
2019-02-28T03:41:06.320Z,4.28
2019-02-28T03:42:06.439Z,4.28
2019-02-28T03:43:07.060Z,4.48
2019-02-28T03:44:06.721Z,4.59
2019-02-28T03:45:06.848Z,4.64
2019-02-28T03:46:10.312Z,4.66
2019-02-28T03:47:07.102Z,4.67
2019-02-28T03:48:07.225Z,4.78
2019-02-28T03:49:11.740Z,4.79
2019-02-28T03:50:07.472Z,4.89
2019-02-28T03:51:07.656Z,4.91
2019-02-28T03:52:07.778Z,4.91
2019-02-28T03:53:07.895Z,4.86
2019-02-28T03:54:08.027Z,4.89
2019-02-28T03:55:08.182Z,5.03
2019-02-28T03:56:08.305Z,5.03
2019-02-28T03:57:08.459Z,5.11
2019-02-28T03:58:08.579Z,5.07
2019-02-28T03:59:08.708Z,5.15
2019-02-28T04:00:08.829Z,5.07
2019-02-28T04:01:10.197Z,5.24
2019-02-28T04:02:09.091Z,5.18
2019-02-28T04:03:09.216Z,5.27
2019-02-28T04:04:12.266Z,5.12
2019-02-28T04:05:09.475Z,5.12
2019-02-28T04:06:09.599Z,5.12
2019-02-28T04:07:15.564Z,5.06
2019-02-28T04:08:09.876Z,5.09
2019-02-28T04:09:09.994Z,5.11
2019-02-28T04:10:10.121Z,5.12
2019-02-28T04:11:10.270Z,5.09
2019-02-28T04:12:10.393Z,5.09
2019-02-28T04:13:10.519Z,5.18
2019-02-28T04:14:10.645Z,5.15
2019-02-28T04:15:11.359Z,5.19
2019-02-28T04:16:10.949Z,5.14
2019-02-28T04:17:11.023Z,5.27
2019-02-28T04:18:11.151Z,5.19
2019-02-28T04:19:11.321Z,5.12
2019-02-28T04:20:11.438Z,5.11
2019-02-28T04:21:12.146Z,5.07
2019-02-28T04:22:11.706Z,5.06
2019-02-28T04:23:11.829Z,5.09
2019-02-28T04:24:13.921Z,5.04
2019-02-28T04:25:12.110Z,4.96
2019-02-28T04:26:12.240Z,4.98
2019-02-28T04:27:12.367Z,4.96
2019-02-28T04:28:17.272Z,5.03
2019-02-28T04:29:12.620Z,5.00
2019-02-28T04:30:12.738Z,4.98
2019-02-28T04:31:18.711Z,4.96
2019-02-28T04:32:13.048Z,4.94
2019-02-28T04:33:13.168Z,4.88
2019-02-28T04:34:14.413Z,4.88
2019-02-28T04:35:13.429Z,4.88
2019-02-28T04:36:13.574Z,4.97
2019-02-28T04:37:13.702Z,4.93
2019-02-28T04:38:13.842Z,4.91
2019-02-28T04:39:13.952Z,4.86
2019-02-28T04:40:14.098Z,4.94
2019-02-28T04:41:14.218Z,4.94
2019-02-28T04:42:14.366Z,4.89
2019-02-28T04:43:14.474Z,4.89
2019-02-28T04:44:15.343Z,4.91
2019-02-28T04:45:14.750Z,4.75
2019-02-28T04:46:14.875Z,4.82
2019-02-28T04:47:15.003Z,4.72
2019-02-28T04:48:15.142Z,4.77
2019-02-28T04:49:15.263Z,4.82
2019-02-28T04:50:15.393Z,4.86
2019-02-28T04:51:15.535Z,4.83
2019-02-28T04:52:15.660Z,4.78
2019-02-28T04:53:18.920Z,4.79
2019-02-28T04:54:15.907Z,4.82
2019-02-28T04:55:16.049Z,4.83
2019-02-28T04:56:16.163Z,4.91
2019-02-28T04:57:17.331Z,4.94
2019-02-28T04:58:16.416Z,4.89
2019-02-28T04:59:16.561Z,4.93
2019-02-28T05:00:16.667Z,4.98
2019-02-28T05:01:16.799Z,4.93
2019-02-28T05:02:19.698Z,4.94
2019-02-28T05:03:17.057Z,4.88
2019-02-28T05:04:17.179Z,4.94
2019-02-28T05:05:17.304Z,5.00
2019-02-28T05:06:18.292Z,4.89
2019-02-28T05:07:17.629Z,4.91
2019-02-28T05:08:17.718Z,4.97
2019-02-28T05:09:17.852Z,4.94
2019-02-28T05:10:19.261Z,4.97
2019-02-28T05:11:18.123Z,4.96
2019-02-28T05:12:18.227Z,4.97
2019-02-28T05:13:18.357Z,4.88
2019-02-28T05:14:23.392Z,5.00
2019-02-28T05:15:18.653Z,5.00
2019-02-28T05:16:18.761Z,4.96
2019-02-28T05:17:19.400Z,5.03
2019-02-28T05:18:19.019Z,4.91
2019-02-28T05:19:19.169Z,4.93
2019-02-28T05:20:19.281Z,4.91
2019-02-28T05:21:19.649Z,4.89
2019-02-28T05:22:19.531Z,4.89
2019-02-28T05:23:19.660Z,4.91
2019-02-28T05:24:19.791Z,4.94
2019-02-28T05:25:19.916Z,4.74
2019-02-28T05:26:20.042Z,4.61
2019-02-28T05:27:20.172Z,4.48
2019-02-28T05:28:20.297Z,4.23
2019-02-28T05:29:20.418Z,4.24
2019-02-28T05:30:20.622Z,4.09
2019-02-28T05:31:20.673Z,3.90
2019-02-28T05:32:20.797Z,3.98
2019-02-28T05:33:20.920Z,3.76
2019-02-28T05:34:21.046Z,3.87
2019-02-28T05:35:25.619Z,3.84
2019-02-28T05:36:21.299Z,3.90
2019-02-28T05:37:21.433Z,3.96
2019-02-28T05:38:22.556Z,4.03
2019-02-28T05:39:21.668Z,4.09
2019-02-28T05:40:21.796Z,4.08
2019-02-28T05:41:21.918Z,4.16
2019-02-28T05:42:23.347Z,4.24
2019-02-28T05:43:22.176Z,4.30
2019-02-28T05:44:22.297Z,4.31
2019-02-28T05:45:22.428Z,4.27
2019-02-28T05:46:23.808Z,4.35
2019-02-28T05:47:22.679Z,4.39
2019-02-28T05:48:22.806Z,4.42
2019-02-28T05:49:22.939Z,4.38
2019-02-28T05:50:23.065Z,4.53
2019-02-28T05:51:24.896Z,4.51
2019-02-28T05:52:23.337Z,4.51
2019-02-28T05:53:23.442Z,4.49
2019-02-28T05:54:23.566Z,4.56
2019-02-28T05:55:25.578Z,4.59
2019-02-28T05:56:23.821Z,4.53
2019-02-28T05:57:23.947Z,4.59
2019-02-28T05:58:24.081Z,4.63
2019-02-28T05:59:27.378Z,4.60
2019-02-28T06:00:24.338Z,4.61
2019-02-28T06:01:24.455Z,4.57
2019-02-28T06:02:25.677Z,4.56
2019-02-28T06:03:24.704Z,4.59
2019-02-28T06:04:24.826Z,4.57
2019-02-28T06:05:24.958Z,4.57
2019-02-28T06:06:25.083Z,4.63
2019-02-28T06:07:25.960Z,4.56
2019-02-28T06:08:25.332Z,4.64
2019-02-28T06:09:25.454Z,4.60
2019-02-28T06:10:25.581Z,4.61
2019-02-28T06:11:25.713Z,4.60
2019-02-28T06:12:25.852Z,4.63
2019-02-28T06:13:25.976Z,4.54
2019-02-28T06:14:27.548Z,4.63
2019-02-28T06:15:26.248Z,4.61
2019-02-28T06:16:26.362Z,4.60
2019-02-28T06:17:26.499Z,4.69
2019-02-28T06:18:32.523Z,4.66
2019-02-28T06:19:26.766Z,4.61
2019-02-28T06:20:26.897Z,4.60
2019-02-28T06:21:27.018Z,4.63
2019-02-28T06:22:27.141Z,4.57
2019-02-28T06:23:27.271Z,4.64
2019-02-28T06:24:27.412Z,4.54
2019-02-28T06:25:27.538Z,4.67
2019-02-28T06:26:27.658Z,4.60
2019-02-28T06:27:27.797Z,4.61
2019-02-28T06:28:30.984Z,4.61
2019-02-28T06:29:28.092Z,4.60
2019-02-28T06:30:28.227Z,4.60
2019-02-28T06:31:28.368Z,4.60
2019-02-28T06:32:28.490Z,4.59
2019-02-28T06:33:30.705Z,4.57
2019-02-28T06:34:28.747Z,4.56
2019-02-28T06:35:28.875Z,4.59
2019-02-28T06:36:29.191Z,4.48
2019-02-28T06:37:29.124Z,4.59
2019-02-28T06:38:29.251Z,4.57
2019-02-28T06:39:29.396Z,4.57
2019-02-28T06:40:32.797Z,4.71
2019-02-28T06:41:29.654Z,4.60
2019-02-28T06:42:29.771Z,4.61
2019-02-28T06:43:29.910Z,4.71
2019-02-28T06:44:30.044Z,4.57
2019-02-28T06:45:30.165Z,4.77
2019-02-28T06:46:30.319Z,4.69
2019-02-28T06:47:30.442Z,4.71
2019-02-28T06:48:30.573Z,4.78
2019-02-28T06:49:30.708Z,4.66
2019-02-28T06:50:30.827Z,4.72
2019-02-28T06:51:30.949Z,4.72
2019-02-28T06:52:31.085Z,4.77
2019-02-28T06:53:33.920Z,4.72
2019-02-28T06:54:31.345Z,4.66
2019-02-28T06:55:31.467Z,4.72
2019-02-28T06:56:31.628Z,4.78
2019-02-28T06:57:33.077Z,4.69
2019-02-28T06:58:33.280Z,4.69
2019-02-28T06:59:31.988Z,4.64
2019-02-28T07:00:32.126Z,4.72
2019-02-28T07:01:32.249Z,4.71
2019-02-28T07:02:32.376Z,4.67
2019-02-28T07:03:35.169Z,4.67
2019-02-28T07:04:32.656Z,4.63
2019-02-28T07:05:32.783Z,4.72
2019-02-28T07:06:35.693Z,4.71
2019-02-28T07:07:33.049Z,4.71
2019-02-28T07:08:33.186Z,4.66
2019-02-28T07:09:33.661Z,4.77
2019-02-28T07:10:33.451Z,4.77
2019-02-28T07:11:33.565Z,4.78
2019-02-28T07:12:33.721Z,4.85
2019-02-28T07:13:38.999Z,4.89
2019-02-28T07:14:33.977Z,4.85
2019-02-28T07:15:34.105Z,4.91
2019-02-28T07:16:37.656Z,4.88
2019-02-28T07:17:34.391Z,4.91
2019-02-28T07:18:34.518Z,5.06
2019-02-28T07:19:34.670Z,4.94
2019-02-28T07:20:35.245Z,5.00
2019-02-28T07:21:34.932Z,4.85
2019-02-28T07:22:35.124Z,4.77
2019-02-28T07:23:35.204Z,4.85
2019-02-28T07:24:37.454Z,4.88
2019-02-28T07:25:35.463Z,4.88
2019-02-28T07:26:35.600Z,4.77
2019-02-28T07:27:35.722Z,4.59
2019-02-28T07:28:37.392Z,4.66
2019-02-28T07:29:35.988Z,4.77
2019-02-28T07:30:36.111Z,4.74
2019-02-28T07:31:36.253Z,4.57
2019-02-28T07:32:36.385Z,4.77
2019-02-28T07:33:36.507Z,4.54
2019-02-28T07:34:36.631Z,4.75
2019-02-28T07:35:36.961Z,4.74
2019-02-28T07:36:36.902Z,4.89
2019-02-28T07:37:37.013Z,4.91
2019-02-28T07:38:37.138Z,4.77
2019-02-28T07:39:40.378Z,4.89
2019-02-28T07:40:37.427Z,4.74
2019-02-28T07:41:37.560Z,4.79
2019-02-28T07:42:38.568Z,4.74
2019-02-28T07:43:37.871Z,4.72
2019-02-28T07:44:38.119Z,4.57
2019-02-28T07:45:38.072Z,4.56
2019-02-28T07:46:38.544Z,4.56
2019-02-28T07:47:38.361Z,4.54
2019-02-28T07:48:38.478Z,4.51
2019-02-28T07:49:38.605Z,4.53
2019-02-28T07:50:38.751Z,4.45
2019-02-28T07:51:38.875Z,4.36
2019-02-28T07:52:39.006Z,4.30
2019-02-28T07:53:40.922Z,4.36
2019-02-28T07:54:39.288Z,4.45
2019-02-28T07:55:39.425Z,4.43
2019-02-28T07:56:43.078Z,4.57
2019-02-28T07:57:39.694Z,4.59
2019-02-28T07:58:39.809Z,4.66
2019-02-28T07:59:42.398Z,4.79
2019-02-28T08:00:40.067Z,4.69
2019-02-28T08:01:40.211Z,4.88
2019-02-28T08:02:40.334Z,4.91
2019-02-28T08:03:43.366Z,4.96
2019-02-28T08:04:40.588Z,5.07
2019-02-28T08:05:40.725Z,5.07
2019-02-28T08:06:40.843Z,5.19
2019-02-28T08:07:40.973Z,5.18
2019-02-28T08:08:41.129Z,5.32
2019-02-28T08:09:41.603Z,5.44
2019-02-28T08:10:41.373Z,5.59
2019-02-28T08:11:41.502Z,5.57
2019-02-28T08:12:41.640Z,5.57
2019-02-28T08:13:41.762Z,5.72
2019-02-28T08:14:43.623Z,5.77
2019-02-28T08:15:42.025Z,5.90
2019-02-28T08:16:42.153Z,5.94
2019-02-28T08:17:43.859Z,5.94
2019-02-28T08:18:42.401Z,6.05
2019-02-28T08:19:42.539Z,6.13
2019-02-28T08:20:42.670Z,6.08
2019-02-28T08:21:47.575Z,6.13
2019-02-28T08:22:42.927Z,6.09
2019-02-28T08:23:43.049Z,6.15
2019-02-28T08:24:43.185Z,6.16
2019-02-28T08:25:43.553Z,6.13
2019-02-28T08:26:43.774Z,6.12
2019-02-28T08:27:43.563Z,6.16
2019-02-28T08:28:43.693Z,6.31
2019-02-28T08:29:45.781Z,6.38
2019-02-28T08:30:43.948Z,6.40
2019-02-28T08:31:44.069Z,6.43
2019-02-28T08:32:46.821Z,6.35
2019-02-28T08:33:44.328Z,6.46
2019-02-28T08:34:46.775Z,6.60
2019-02-28T08:35:44.587Z,6.56
2019-02-28T08:36:46.964Z,6.64
2019-02-28T08:37:44.852Z,6.79
2019-02-28T08:38:44.984Z,6.79
2019-02-28T08:39:45.120Z,6.88
2019-02-28T08:40:50.293Z,6.86
2019-02-28T08:41:45.369Z,6.97
2019-02-28T08:42:45.521Z,7.22
2019-02-28T08:43:47.832Z,7.22
2019-02-28T08:44:45.767Z,7.36
2019-02-28T08:45:45.899Z,7.47
2019-02-28T08:46:46.483Z,7.54
2019-02-28T08:47:46.150Z,7.61
2019-02-28T08:48:46.329Z,7.73
2019-02-28T08:49:46.411Z,7.78
2019-02-28T08:50:46.545Z,7.92
2019-02-28T08:51:46.673Z,7.99
2019-02-28T08:52:48.313Z,8.14
2019-02-28T08:53:50.782Z,8.26
2019-02-28T08:54:47.057Z,8.28
2019-02-28T08:55:47.193Z,8.34
2019-02-28T08:56:49.564Z,8.38
2019-02-28T08:57:54.457Z,8.55
2019-02-28T08:58:47.578Z,8.57
2019-02-28T08:59:47.712Z,8.63
2019-02-28T09:00:47.843Z,8.67
2019-02-28T09:01:47.968Z,8.78
2019-02-28T09:02:52.227Z,8.80
2019-02-28T09:03:50.216Z,8.92
2019-02-28T09:04:50.889Z,8.96
2019-02-28T09:05:48.536Z,8.99
2019-02-28T09:06:48.670Z,9.11
2019-02-28T09:07:51.282Z,9.16
2019-02-28T09:08:48.928Z,9.14
2019-02-28T09:09:49.051Z,9.34
2019-02-28T09:10:49.175Z,9.34
2019-02-28T09:11:49.298Z,9.42
2019-02-28T09:12:49.432Z,9.54
2019-02-28T09:13:49.557Z,9.47
2019-02-28T09:14:51.981Z,9.66
2019-02-28T09:15:50.672Z,9.78
2019-02-28T09:16:49.966Z,9.85
2019-02-28T09:17:50.118Z,9.98
2019-02-28T09:18:50.234Z,10.01
2019-02-28T09:19:50.358Z,10.09
2019-02-28T09:20:50.487Z,10.20
2019-02-28T09:21:52.927Z,10.16
2019-02-28T09:22:50.751Z,10.35
2019-02-28T09:23:50.884Z,10.35
2019-02-28T09:24:51.007Z,10.43
2019-02-28T09:25:53.350Z,10.54
2019-02-28T09:26:51.271Z,10.64
2019-02-28T09:27:51.403Z,10.70
2019-02-28T09:28:51.537Z,10.79
2019-02-28T09:29:54.364Z,10.79
2019-02-28T09:30:51.812Z,10.85
2019-02-28T09:31:51.930Z,11.08
2019-02-28T09:32:52.071Z,11.04
2019-02-28T09:33:52.202Z,11.18
2019-02-28T09:34:52.333Z,11.20
2019-02-28T09:35:52.458Z,11.23
2019-02-28T09:36:56.488Z,11.23
2019-02-28T09:37:52.719Z,11.36
2019-02-28T09:38:57.100Z,11.45
2019-02-28T09:39:54.254Z,11.55
2019-02-28T09:40:53.110Z,11.58
2019-02-28T09:41:53.243Z,11.71
2019-02-28T09:42:53.377Z,11.87
2019-02-28T09:43:57.205Z,11.97
2019-02-28T09:44:53.639Z,12.04
2019-02-28T09:45:53.771Z,11.97
2019-02-28T09:46:53.908Z,12.07
2019-02-28T09:47:54.036Z,12.28
2019-02-28T09:48:54.167Z,12.40
2019-02-28T09:49:54.312Z,12.38
2019-02-28T09:50:58.025Z,12.53
2019-02-28T09:51:54.556Z,12.61
2019-02-28T09:52:54.679Z,12.71
2019-02-28T09:53:54.811Z,12.69
2019-02-28T09:54:56.299Z,12.81
2019-02-28T09:55:55.075Z,12.95
2019-02-28T09:56:55.207Z,13.01
2019-02-28T09:57:56.936Z,13.09
2019-02-28T09:58:55.480Z,13.09
2019-02-28T09:59:55.604Z,12.99
2019-02-28T10:00:55.743Z,12.98
2019-02-28T10:02:01.429Z,12.95
2019-02-28T10:02:56.000Z,13.04
2019-02-28T10:03:56.222Z,13.13
2019-02-28T10:04:56.267Z,13.32
2019-02-28T10:05:56.400Z,13.39
2019-02-28T10:06:56.952Z,13.38
2019-02-28T10:08:01.751Z,13.39
2019-02-28T10:08:56.802Z,13.55
2019-02-28T10:09:56.932Z,13.71
2019-02-28T10:10:57.079Z,13.67
2019-02-28T10:11:57.203Z,13.76
2019-02-28T10:12:57.329Z,13.82
2019-02-28T10:13:57.464Z,13.76
2019-02-28T10:15:00.649Z,13.82
2019-02-28T10:15:57.732Z,13.97
2019-02-28T10:16:57.852Z,13.98
2019-02-28T10:18:00.622Z,13.90
2019-02-28T10:18:58.121Z,14.13
2019-02-28T10:19:58.262Z,14.30
2019-02-28T10:20:59.037Z,14.28
2019-02-28T10:21:58.520Z,14.44
2019-02-28T10:22:58.676Z,14.46
2019-02-28T10:23:58.792Z,14.56
2019-02-28T10:24:58.934Z,14.53
2019-02-28T10:25:59.060Z,14.63
2019-02-28T10:26:59.187Z,14.55
2019-02-28T10:28:02.575Z,14.53
2019-02-28T10:29:01.205Z,14.61
2019-02-28T10:29:59.593Z,14.71
2019-02-28T10:30:59.733Z,14.66
2019-02-28T10:31:59.869Z,14.73
2019-02-28T10:33:00.000Z,14.82
2019-02-28T10:34:00.150Z,14.71
2019-02-28T10:35:01.384Z,14.87
2019-02-28T10:36:00.402Z,14.86
2019-02-28T10:37:00.546Z,14.95
2019-02-28T10:38:00.678Z,14.96
2019-02-28T10:39:02.694Z,14.96
2019-02-28T10:40:00.951Z,15.08
2019-02-28T10:41:01.110Z,15.10
2019-02-28T10:42:01.494Z,15.19
2019-02-28T10:43:01.367Z,15.27
2019-02-28T10:44:01.511Z,15.32
2019-02-28T10:45:03.613Z,15.41
2019-02-28T10:46:01.780Z,15.48
2019-02-28T10:47:01.916Z,15.58
2019-02-28T10:48:03.869Z,15.68
2019-02-28T10:49:02.192Z,15.90
2019-02-28T10:50:02.324Z,16.08
2019-02-28T10:51:12.250Z,15.96
2019-02-28T10:52:02.602Z,16.00
2019-02-28T10:53:05.508Z,16.18
2019-02-28T10:54:02.884Z,16.09
2019-02-28T10:55:03.010Z,16.26
2019-02-28T10:56:03.157Z,15.88
2019-02-28T10:57:05.957Z,16.22
2019-02-28T10:58:03.432Z,16.22
2019-02-28T10:59:03.570Z,16.36
2019-02-28T11:00:03.704Z,16.44
2019-02-28T11:01:07.700Z,16.33
2019-02-28T11:02:03.990Z,16.24
2019-02-28T11:03:04.132Z,16.39
2019-02-28T11:04:04.541Z,16.67
2019-02-28T11:05:04.403Z,16.87
2019-02-28T11:06:04.537Z,16.73
2019-02-28T11:07:04.685Z,16.47
2019-02-28T11:08:04.816Z,16.43
2019-02-28T11:09:04.953Z,16.44
2019-02-28T11:10:05.099Z,16.62
2019-02-28T11:11:07.323Z,16.57
2019-02-28T11:12:05.361Z,16.42
2019-02-28T11:13:05.503Z,16.54
2019-02-28T11:14:05.642Z,16.40
2019-02-28T11:15:05.781Z,16.65
2019-02-28T11:16:05.917Z,16.61
2019-02-28T11:17:12.270Z,16.62
2019-02-28T11:18:09.639Z,16.39
2019-02-28T11:19:06.332Z,16.25
2019-02-28T11:20:06.474Z,16.22
2019-02-28T11:21:06.617Z,16.36
2019-02-28T11:22:06.750Z,16.51
2019-02-28T11:23:07.740Z,16.61
2019-02-28T11:24:07.028Z,16.79
2019-02-28T11:25:07.159Z,16.98
2019-02-28T11:26:09.563Z,17.12
2019-02-28T11:27:07.436Z,17.01
2019-02-28T11:28:07.569Z,16.80
2019-02-28T11:29:07.710Z,16.88
2019-02-28T11:30:10.077Z,16.91
2019-02-28T11:31:07.989Z,16.91
2019-02-28T11:32:08.132Z,16.91
2019-02-28T11:33:08.274Z,17.10
2019-02-28T11:34:08.426Z,17.43
2019-02-28T11:35:08.550Z,17.32
2019-02-28T11:36:08.698Z,16.83
2019-02-28T11:37:09.810Z,16.73
2019-02-28T11:38:08.981Z,16.83
2019-02-28T11:39:09.113Z,16.52
2019-02-28T11:40:09.271Z,16.64
2019-02-28T11:41:09.376Z,16.61
2019-02-28T11:42:09.511Z,16.61
2019-02-28T11:43:09.651Z,16.44
2019-02-28T11:44:12.003Z,16.80
2019-02-28T11:45:09.926Z,16.46
2019-02-28T11:46:10.101Z,16.34
2019-02-28T11:47:11.207Z,16.08
2019-02-28T11:48:10.347Z,16.21
2019-02-28T11:49:10.474Z,16.32
2019-02-28T11:50:10.612Z,16.34
2019-02-28T11:51:10.737Z,16.73
2019-02-28T11:52:10.881Z,17.07
2019-02-28T11:53:11.013Z,17.07
2019-02-28T11:54:12.305Z,17.30
2019-02-28T11:55:11.284Z,17.38
2019-02-28T11:56:11.424Z,17.22
2019-02-28T11:57:11.557Z,17.56
2019-02-28T11:58:16.578Z,18.18
2019-02-28T11:59:11.840Z,18.70
2019-02-28T12:00:13.439Z,18.67
2019-02-28T12:01:12.113Z,18.67
2019-02-28T12:02:12.246Z,18.28
2019-02-28T12:03:12.384Z,17.73
2019-02-28T12:04:12.531Z,17.47
2019-02-28T12:05:15.696Z,17.41
2019-02-28T12:06:12.789Z,17.41
2019-02-28T12:07:12.928Z,17.39
2019-02-28T12:08:13.084Z,17.09
2019-02-28T12:09:13.217Z,16.83
2019-02-28T12:10:13.354Z,16.54
2019-02-28T12:11:13.505Z,16.42
2019-02-28T12:12:13.630Z,16.55
2019-02-28T12:13:16.542Z,16.72
2019-02-28T12:14:13.918Z,16.67
2019-02-28T12:15:14.049Z,16.22
2019-02-28T12:16:16.275Z,16.17
2019-02-28T12:17:15.137Z,15.87
2019-02-28T12:18:14.464Z,15.70
2019-02-28T12:19:15.847Z,15.76
2019-02-28T12:20:14.741Z,15.78
2019-02-28T12:21:14.879Z,15.66
2019-02-28T12:22:15.014Z,15.76
2019-02-28T12:23:15.143Z,15.66
2019-02-28T12:24:15.280Z,15.66
2019-02-28T12:25:15.425Z,15.85
2019-02-28T12:26:17.711Z,15.80
2019-02-28T12:27:15.701Z,15.73
2019-02-28T12:28:15.828Z,15.78
2019-02-28T12:29:15.963Z,15.77
2019-02-28T12:30:16.096Z,15.88
2019-02-28T12:31:16.227Z,15.88
2019-02-28T12:32:16.376Z,15.84
2019-02-28T12:33:19.124Z,15.72
2019-02-28T12:34:16.638Z,15.98
2019-02-28T12:35:16.771Z,16.03
2019-02-28T12:36:16.912Z,16.10
2019-02-28T12:37:17.039Z,16.03
2019-02-28T12:38:17.184Z,16.10
2019-02-28T12:39:17.315Z,16.05
2019-02-28T12:40:17.457Z,16.14
2019-02-28T12:41:17.612Z,16.21
2019-02-28T12:42:17.747Z,16.39
2019-02-28T12:43:17.881Z,16.22
2019-02-28T12:44:18.015Z,16.22
2019-02-28T12:45:18.165Z,16.37
2019-02-28T12:46:18.296Z,16.22
2019-02-28T12:47:18.427Z,16.18
2019-02-28T12:48:18.562Z,16.29
2019-02-28T12:49:21.831Z,16.55
2019-02-28T12:50:18.838Z,17.63
2019-02-28T12:51:18.972Z,18.64
2019-02-28T12:52:19.113Z,19.08
2019-02-28T12:53:24.124Z,19.94
2019-02-28T12:54:19.384Z,20.53
2019-02-28T12:55:19.541Z,20.85
2019-02-28T12:56:19.656Z,21.29
2019-02-28T12:57:22.366Z,21.98
2019-02-28T12:58:19.916Z,22.23
2019-02-28T12:59:20.055Z,21.84
2019-02-28T13:00:23.308Z,22.07
2019-02-28T13:01:20.348Z,22.56
2019-02-28T13:02:20.489Z,22.77
2019-02-28T13:03:21.202Z,22.95
2019-02-28T13:04:20.778Z,22.95
2019-02-28T13:05:20.924Z,22.96
2019-02-28T13:06:23.849Z,22.49
2019-02-28T13:07:21.212Z,21.73
2019-02-28T13:08:21.402Z,21.08
2019-02-28T13:09:21.514Z,20.65
2019-02-28T13:10:26.800Z,20.19
2019-02-28T13:11:21.800Z,19.82
2019-02-28T13:12:22.023Z,19.42